Time;durP1;ratioP1;P1;durP2;ratioP2;P2;SDS_P1;SDS_P2;PMS_P1;PMS_P2;Temp;Humidity;BMP_temperature;BMP_pressure;BME280_temperature;BME280_humidity;BME280_pressure;Samples;Min_cycle;Max_cycle;Signal;HPM_P1;HPM_P2
2022/01/06 00:00:43;;;;;;;4.40;2.13;;;;;;;2.52;65.62;96515.31;5090364;28;20508;-68
2022/01/06 00:03:10;;;;;;;5.27;2.23;;;;;;;2.65;64.63;96511.00;5098309;28;20209;-67
2022/01/06 00:05:36;;;;;;;3.50;1.90;;;;;;;2.61;63.47;96504.31;5099548;28;20228;-67
2022/01/06 00:08:03;;;;;;;3.80;1.80;;;;;;;2.63;62.61;96514.63;5101569;28;20201;-67
2022/01/06 00:10:31;;;;;;;5.57;1.90;;;;;;;2.71;63.28;96513.22;5098253;28;20614;-65
2022/01/06 00:13:08;;;;;;;5.80;1.97;;;;;;;2.63;64.53;96510.25;5094689;28;20294;-65
2022/01/06 00:15:41;;;;;;;2.37;1.60;;;;;;;2.69;63.83;96509.88;5093686;28;20204;-67
2022/01/06 00:18:29;;;;;;;4.10;2.40;;;;;;;2.67;64.27;96513.50;5095145;28;20300;-66
2022/01/06 00:23:39;;;;;;;3.40;1.63;;;;;;;2.54;68.75;96508.25;5094594;28;20329;-67
2022/01/06 00:26:08;;;;;;;2.47;1.90;;;;;;;2.40;68.65;96516.09;5094031;28;20228;-66
2022/01/06 00:28:34;;;;;;;5.13;2.30;;;;;;;2.27;67.94;96520.41;5095123;28;20206;-67
2022/01/06 00:31:01;;;;;;;4.77;2.40;;;;;;;2.28;71.32;96514.25;5095265;28;20204;-66
2022/01/06 00:33:31;;;;;;;5.10;3.00;;;;;;;2.20;71.46;96519.09;5100176;28;20212;-66
2022/01/06 00:35:57;;;;;;;4.67;2.90;;;;;;;2.29;71.70;96518.56;5099883;28;20201;-65
2022/01/06 00:38:25;;;;;;;2.97;1.80;;;;;;;2.20;72.89;96514.72;5098013;28;20221;-65
2022/01/06 00:40:52;;;;;;;4.90;2.40;;;;;;;2.02;76.71;96512.44;5094722;28;20190;-65
2022/01/06 00:43:20;;;;;;;4.97;2.27;;;;;;;1.96;75.67;96508.44;5094847;28;20240;-67
2022/01/06 00:45:46;;;;;;;5.93;2.17;;;;;;;2.11;74.84;96510.09;5096654;28;20222;-66
2022/01/06 00:48:14;;;;;;;7.07;2.73;;;;;;;2.04;75.21;96500.97;5097398;28;20231;-66
2022/01/06 00:50:42;;;;;;;3.57;1.90;;;;;;;2.10;74.77;96503.19;5095386;28;20652;-66
2022/01/06 00:53:08;;;;;;;5.50;2.27;;;;;;;1.96;75.83;96513.63;5094067;28;21527;-66
2022/01/06 00:55:36;;;;;;;6.07;1.97;;;;;;;1.91;77.54;96513.09;5097167;28;20208;-65
2022/01/06 00:58:03;;;;;;;4.53;2.30;;;;;;;1.88;76.74;96523.69;5096658;28;20224;-66
2022/01/06 01:00:38;;;;;;;2.57;1.97;;;;;;;1.83;78.59;96526.59;5099001;28;20196;-66
2022/01/06 01:03:05;;;;;;;3.53;2.00;;;;;;;1.92;78.00;96526.03;5096947;28;20303;-66
2022/01/06 01:05:32;;;;;;;3.27;2.20;;;;;;;1.83;78.83;96530.97;5097794;28;20253;-66
2022/01/06 01:07:58;;;;;;;3.50;2.03;;;;;;;1.73;78.93;96530.69;5098677;28;20199;-66
2022/01/06 01:10:25;;;;;;;3.23;1.73;;;;;;;1.76;81.35;96533.13;5097075;28;20212;-66
2022/01/06 01:12:51;;;;;;;5.23;2.13;;;;;;;1.79;79.44;96532.94;5094944;28;20208;-66
2022/01/06 01:15:20;;;;;;;4.30;1.97;;;;;;;1.84;79.79;96541.28;5093913;28;20650;-66
2022/01/06 01:17:49;;;;;;;5.17;2.00;;;;;;;1.93;78.86;96538.13;5097683;28;20203;-65
2022/01/06 01:20:17;;;;;;;6.30;2.70;;;;;;;2.00;78.60;96544.66;5098265;28;20215;-66
2022/01/06 01:22:43;;;;;;;7.13;2.33;;;;;;;1.98;78.59;96546.50;5099108;28;20208;-68
2022/01/06 01:25:11;;;;;;;6.97;2.63;;;;;;;1.99;78.69;96542.97;5101850;28;20206;-66
2022/01/06 01:27:40;;;;;;;4.93;1.70;;;;;;;1.99;78.48;96537.75;5102451;28;20202;-66
2022/01/06 01:30:12;;;;;;;4.93;2.07;;;;;;;1.88;78.79;96534.97;5104263;28;20241;-66
2022/01/06 01:32:40;;;;;;;5.40;1.47;;;;;;;1.91;79.13;96533.97;5106149;28;20204;-65
2022/01/06 01:35:10;;;;;;;5.30;1.63;;;;;;;2.07;77.08;96534.69;5109268;28;20203;-67
2022/01/06 01:37:37;;;;;;;6.13;2.57;;;;;;;2.11;76.49;96532.72;5108680;28;20229;-67
2022/01/06 01:40:05;;;;;;;2.27;1.63;;;;;;;2.13;75.51;96543.88;5104781;28;20221;-67
2022/01/06 01:42:33;;;;;;;6.53;2.00;;;;;;;2.20;75.71;96539.97;5101839;28;20195;-67
2022/01/06 01:45:01;;;;;;;7.97;2.37;;;;;;;2.18;76.14;96552.28;5100279;28;20216;-67
2022/01/06 01:47:31;;;;;;;3.00;1.83;;;;;;;2.18;75.22;96544.47;5102345;28;20228;-67
2022/01/06 01:50:10;;;;;;;3.10;1.63;;;;;;;2.17;75.72;96555.81;5100787;28;20215;-65
2022/01/06 01:52:38;;;;;;;5.00;1.60;;;;;;;2.06;75.13;96564.31;5108550;28;20222;-65
2022/01/06 01:55:05;;;;;;;3.87;2.00;;;;;;;2.11;74.65;96566.63;5110388;28;20205;-65
2022/01/06 01:57:31;;;;;;;3.83;1.93;;;;;;;2.04;77.04;96575.75;5109457;28;20189;-66
2022/01/06 01:59:58;;;;;;;3.80;1.47;;;;;;;2.00;76.86;96570.75;5112919;28;20234;-67
2022/01/06 02:02:24;;;;;;;6.13;1.60;;;;;;;2.02;76.38;96569.81;5114297;28;20201;-67
2022/01/06 02:04:52;;;;;;;5.13;2.13;;;;;;;2.12;76.39;96568.31;5110104;28;20208;-66
2022/01/06 02:07:19;;;;;;;6.30;1.77;;;;;;;2.12;76.28;96569.16;5118029;28;20228;-67
2022/01/06 02:09:47;;;;;;;2.57;1.63;;;;;;;2.09;76.29;96571.13;5117616;28;20193;-66
2022/01/06 02:12:23;;;;;;;5.07;2.10;;;;;;;2.14;75.64;96567.28;5118732;28;20201;-66
2022/01/06 02:14:49;;;;;;;3.37;1.73;;;;;;;2.08;75.21;96569.44;5114271;28;20209;-66
2022/01/06 02:17:16;;;;;;;4.20;1.87;;;;;;;2.05;74.92;96574.84;5111047;28;20197;-66
2022/01/06 02:19:52;;;;;;;5.07;1.87;;;;;;;2.02;76.38;96580.25;5119761;28;20212;-66
2022/01/06 02:22:18;;;;;;;3.47;1.93;;;;;;;2.02;75.32;96577.66;5120929;28;20193;-65
2022/01/06 02:24:45;;;;;;;5.57;1.60;;;;;;;2.05;75.66;96577.44;5115286;28;20199;-66
2022/01/06 02:27:11;;;;;;;5.30;2.00;;;;;;;2.08;75.88;96582.47;5097501;28;20506;-67
2022/01/06 02:29:38;;;;;;;5.20;1.90;;;;;;;2.09;76.32;96577.16;5115769;28;20200;-66
2022/01/06 02:32:08;;;;;;;5.60;1.83;;;;;;;2.01;75.65;96582.00;5120524;28;20205;-66
2022/01/06 02:34:35;;;;;;;5.13;1.77;;;;;;;1.97;76.18;96581.34;5120521;28;20190;-68
2022/01/06 02:37:03;;;;;;;3.93;1.83;;;;;;;2.00;75.49;96585.53;5120225;28;20202;-67
2022/01/06 02:39:30;;;;;;;4.13;1.63;;;;;;;2.05;74.54;96593.09;5119872;28;20240;-66
2022/01/06 02:41:56;;;;;;;3.73;1.97;;;;;;;2.06;74.09;96594.75;5098983;28;20208;-66
2022/01/06 02:44:25;;;;;;;4.33;1.80;;;;;;;2.03;73.85;96594.94;5096126;28;20211;-68
2022/01/06 02:46:51;;;;;;;3.97;1.60;;;;;;;2.05;75.30;96588.72;5111245;28;20251;-67
2022/01/06 02:49:18;;;;;;;4.77;2.10;;;;;;;2.02;75.93;96598.50;5112195;28;20208;-67
2022/01/06 02:51:44;;;;;;;3.37;2.13;;;;;;;2.00;76.18;96602.03;5107381;28;20193;-67
2022/01/06 02:54:13;;;;;;;6.90;1.97;;;;;;;1.97;75.85;96606.59;5102115;28;20219;-66
2022/01/06 02:56:41;;;;;;;4.63;2.13;;;;;;;2.03;75.14;96615.81;5095792;28;20535;-67
2022/01/06 02:59:08;;;;;;;4.30;2.37;;;;;;;1.95;78.23;96605.81;5095321;28;20224;-67
2022/01/06 03:01:38;;;;;;;5.23;1.50;;;;;;;1.88;76.69;96607.97;5095560;28;20202;-65
2022/01/06 03:04:05;;;;;;;3.57;1.63;;;;;;;2.00;77.29;96614.22;5095263;28;20197;-67
2022/01/06 03:06:31;;;;;;;3.87;1.70;;;;;;;2.03;77.07;96605.38;5095391;28;20204;-66
2022/01/06 03:08:57;;;;;;;4.93;1.77;;;;;;;1.89;78.31;96614.88;5095525;28;20201;-67
2022/01/06 03:11:26;;;;;;;7.00;2.13;;;;;;;1.93;79.08;96615.53;5095078;28;20204;-68
2022/01/06 03:13:52;;;;;;;5.60;1.77;;;;;;;1.96;79.86;96616.19;5093337;28;20265;-67
2022/01/06 03:16:19;;;;;;;4.63;1.93;;;;;;;1.93;79.49;96618.13;5094295;28;20200;-67
2022/01/06 03:18:45;;;;;;;4.23;1.40;;;;;;;1.88;79.03;96615.78;5095046;28;20219;-64
2022/01/06 03:21:12;;;;;;;2.53;1.43;;;;;;;1.97;78.67;96620.47;5095183;28;20212;-64
2022/01/06 03:23:38;;;;;;;4.20;1.90;;;;;;;1.83;80.27;96620.47;5094971;28;20199;-67
2022/01/06 03:26:05;;;;;;;2.90;2.00;;;;;;;1.75;79.15;96632.25;5095077;28;20208;-66
2022/01/06 03:28:33;;;;;;;7.77;2.07;;;;;;;1.76;81.68;96633.94;5094737;28;20213;-66
2022/01/06 03:30:59;;;;;;;5.10;1.80;;;;;;;1.77;82.76;96631.22;5096845;28;20216;-66
2022/01/06 03:33:26;;;;;;;6.80;2.03;;;;;;;1.82;82.67;96639.63;5112763;28;20214;-67
2022/01/06 03:35:53;;;;;;;4.67;1.50;;;;;;;1.87;81.76;96632.38;5118661;28;20191;-68
2022/01/06 03:38:19;;;;;;;4.57;1.50;;;;;;;1.84;83.45;96642.16;5108740;28;20201;-66
2022/01/06 03:40:46;;;;;;;4.27;1.87;;;;;;;1.80;80.85;96641.50;5106602;28;20220;-66
2022/01/06 03:43:12;;;;;;;3.97;1.70;;;;;;;1.85;81.08;96638.59;5106365;28;20218;-65
2022/01/06 03:45:40;;;;;;;5.30;2.13;;;;;;;1.81;80.59;96648.38;5100459;28;20212;-67
2022/01/06 03:48:06;;;;;;;5.23;2.00;;;;;;;1.83;82.47;96649.13;5098293;28;20255;-67
2022/01/06 03:50:33;;;;;;;2.83;1.83;;;;;;;1.79;81.65;96655.44;5094405;28;20200;-65
2022/01/06 03:53:00;;;;;;;3.40;2.20;;;;;;;1.78;82.26;96658.13;5096217;28;20211;-67
2022/01/06 03:55:26;;;;;;;4.53;1.93;;;;;;;1.84;83.13;96663.81;5095476;28;20514;-66
2022/01/06 03:57:52;;;;;;;5.50;2.00;;;;;;;1.77;84.10;96664.31;5094986;28;20212;-66
2022/01/06 04:00:21;;;;;;;6.50;2.00;;;;;;;1.69;84.40;96669.94;5094755;28;20227;-66
2022/01/06 04:02:51;;;;;;;3.73;1.97;;;;;;;1.75;84.83;96664.38;5095571;28;20211;-65
2022/01/06 04:05:17;;;;;;;6.37;2.43;;;;;;;1.71;86.22;96662.88;5094679;28;20208;-66
2022/01/06 04:07:44;;;;;;;4.63;2.00;;;;;;;1.67;86.67;96665.72;5095865;28;20626;-66
2022/01/06 04:10:12;;;;;;;5.07;1.93;;;;;;;1.65;87.23;96663.22;5098082;28;20196;-66
2022/01/06 04:12:39;;;;;;;4.97;2.07;;;;;;;1.59;86.47;96662.75;5096905;28;20273;-64
2022/01/06 04:15:09;;;;;;;6.87;1.70;;;;;;;1.62;87.18;96666.03;5094903;28;20207;-65
2022/01/06 04:17:36;;;;;;;6.20;2.40;;;;;;;1.56;88.28;96666.34;5094823;28;20686;-66
2022/01/06 04:20:07;;;;;;;3.17;2.13;;;;;;;1.51;86.89;96660.59;5094193;28;20226;-66
2022/01/06 04:22:33;;;;;;;6.00;1.87;;;;;;;1.51;86.72;96673.63;5094950;28;20203;-65
2022/01/06 04:25:00;;;;;;;7.63;1.83;;;;;;;1.56;86.85;96673.34;5096228;28;20201;-67
2022/01/06 04:27:26;;;;;;;7.10;2.67;;;;;;;1.52;88.07;96677.91;5098601;28;20287;-67
2022/01/06 04:29:53;;;;;;;4.17;2.20;;;;;;;1.52;87.67;96677.06;5099441;28;20196;-67
2022/01/06 04:32:21;;;;;;;6.30;2.03;;;;;;;1.46;86.33;96681.69;5101652;28;20203;-66
2022/01/06 04:34:47;;;;;;;5.30;2.30;;;;;;;1.53;87.43;96676.94;5099318;28;20217;-66
2022/01/06 04:37:15;;;;;;;5.73;2.20;;;;;;;1.64;86.92;96674.56;5101173;28;20200;-67
2022/01/06 04:39:41;;;;;;;6.43;1.93;;;;;;;1.65;87.29;96672.81;5097234;28;20211;-67
2022/01/06 04:42:08;;;;;;;2.47;1.63;;;;;;;1.74;87.45;96673.13;5093203;28;20216;-67
2022/01/06 04:44:34;;;;;;;6.77;2.27;;;;;;;1.62;86.31;96679.06;5101853;28;20204;-67
2022/01/06 04:47:01;;;;;;;4.33;1.93;;;;;;;1.69;87.65;96680.38;5099141;28;20243;-65
2022/01/06 04:49:28;;;;;;;4.27;1.97;;;;;;;1.62;87.06;96689.47;5100323;28;20224;-66
2022/01/06 04:51:54;;;;;;;6.87;2.27;;;;;;;1.61;87.60;96694.75;5101000;28;20204;-66
2022/01/06 04:54:22;;;;;;;4.07;1.70;;;;;;;1.54;87.67;96691.66;5098127;28;20207;-65
2022/01/06 04:56:48;;;;;;;6.03;2.50;;;;;;;1.54;88.11;96691.66;5104638;28;20266;-65
2022/01/06 04:59:15;;;;;;;4.40;2.37;;;;;;;1.46;87.69;96699.91;5104809;28;20276;-65
2022/01/06 05:01:41;;;;;;;3.30;2.07;;;;;;;1.45;88.68;96700.03;5099118;28;20204;-66
2022/01/06 05:04:08;;;;;;;5.40;2.37;;;;;;;1.48;88.40;96707.66;5098082;28;20205;-65
2022/01/06 05:06:34;;;;;;;4.13;2.07;;;;;;;1.51;87.56;96707.47;5093049;28;20200;-67
2022/01/06 05:09:01;;;;;;;3.70;1.77;;;;;;;1.55;87.59;96719.41;5093236;28;20200;-65
2022/01/06 05:11:29;;;;;;;3.97;2.50;;;;;;;1.45;87.59;96723.47;5093137;28;20211;-66
2022/01/06 05:13:55;;;;;;;4.90;2.10;;;;;;;1.38;87.50;96722.13;5093089;28;20206;-66
2022/01/06 05:16:22;;;;;;;3.13;1.90;;;;;;;1.59;86.84;96718.31;5092696;28;20199;-67
2022/01/06 05:18:49;;;;;;;3.33;1.83;;;;;;;1.66;87.00;96726.63;5093686;28;20244;-66
2022/01/06 05:21:15;;;;;;;4.40;2.40;;;;;;;1.60;86.70;96719.97;5092710;28;20353;-67
2022/01/06 05:23:42;;;;;;;5.03;1.83;;;;;;;1.62;87.42;96718.16;5092586;28;20485;-66
2022/01/06 05:26:08;;;;;;;4.63;2.07;;;;;;;1.61;88.23;96721.66;5093185;28;20204;-65
2022/01/06 05:28:36;;;;;;;5.10;2.43;;;;;;;1.73;88.14;96726.19;5093715;28;20195;-67
2022/01/06 05:31:03;;;;;;;2.60;1.50;;;;;;;1.61;87.64;96721.66;5092546;28;20213;-65
2022/01/06 05:33:29;;;;;;;4.33;2.00;;;;;;;1.52;87.61;96711.78;5092937;28;20228;-66
2022/01/06 05:35:56;;;;;;;4.00;2.00;;;;;;;1.62;88.00;96718.16;5092265;28;20205;-67
2022/01/06 05:38:22;;;;;;;3.07;1.80;;;;;;;1.60;86.26;96722.59;5096434;28;20199;-66
2022/01/06 05:40:49;;;;;;;5.03;1.80;;;;;;;1.60;86.37;96719.97;5096130;28;20226;-67
2022/01/06 05:43:15;;;;;;;3.60;1.90;;;;;;;1.59;87.63;96722.69;5097416;28;20212;-67
2022/01/06 05:45:43;;;;;;;5.10;1.93;;;;;;;1.47;86.51;96721.59;5098004;28;20219;-66
2022/01/06 05:48:09;;;;;;;4.13;1.73;;;;;;;1.55;87.46;96719.41;5098242;28;20246;-67
2022/01/06 05:50:36;;;;;;;5.40;2.07;;;;;;;1.56;87.88;96726.28;5098562;28;20202;-66
2022/01/06 05:53:02;;;;;;;8.07;1.80;;;;;;;1.56;87.53;96728.09;5098650;28;20214;-66
2022/01/06 05:55:29;;;;;;;3.80;1.90;;;;;;;1.58;86.14;96724.47;5099886;28;20194;-66
2022/01/06 05:57:55;;;;;;;3.00;1.67;;;;;;;1.56;85.70;96741.13;5109826;28;20207;-66
2022/01/06 06:00:22;;;;;;;4.83;1.77;;;;;;;1.59;85.88;96740.94;5117341;28;20214;-66
2022/01/06 06:02:50;;;;;;;5.30;2.10;;;;;;;1.66;85.84;96745.72;5115021;28;20210;-66
2022/01/06 06:05:17;;;;;;;4.63;2.00;;;;;;;1.60;85.95;96740.84;5103532;28;20209;-67
2022/01/06 06:07:43;;;;;;;4.10;1.73;;;;;;;1.63;85.12;96743.25;5101625;28;20215;-67
2022/01/06 06:10:09;;;;;;;5.20;1.93;;;;;;;1.63;85.11;96751.09;5104519;28;20196;-67
2022/01/06 06:12:36;;;;;;;3.67;1.90;;;;;;;1.69;86.27;96757.72;5099564;28;20213;-66
2022/01/06 06:15:02;;;;;;;2.57;1.50;;;;;;;1.65;86.59;96753.63;5096832;28;20199;-65
2022/01/06 06:17:29;;;;;;;2.30;1.43;;;;;;;1.65;85.74;96754.47;5096902;28;20242;-67
2022/01/06 06:19:57;;;;;;;4.40;2.20;;;;;;;1.66;84.61;96756.16;5095981;28;20219;-67
2022/01/06 06:22:23;;;;;;;5.90;2.53;;;;;;;1.64;85.92;96762.34;5096094;28;20769;-66
2022/01/06 06:24:49;;;;;;;5.20;1.67;;;;;;;1.54;86.05;96758.59;5095640;28;20205;-67
2022/01/06 06:27:16;;;;;;;7.80;2.63;;;;;;;1.58;85.73;96766.16;5095462;28;20763;-67
2022/01/06 06:29:42;;;;;;;3.07;1.70;;;;;;;1.63;87.32;96766.72;5095129;28;20644;-66
2022/01/06 06:32:09;;;;;;;5.47;2.00;;;;;;;1.49;86.91;96764.88;5096311;28;20208;-67
2022/01/06 06:34:35;;;;;;;1.63;1.50;;;;;;;1.47;88.27;96755.47;5095200;28;20218;-66
2022/01/06 06:37:04;;;;;;;3.80;1.90;;;;;;;1.47;88.84;96745.91;5095455;28;20604;-66
2022/01/06 06:39:30;;;;;;;4.20;1.77;;;;;;;1.41;89.18;96751.47;5096115;28;20222;-68
2022/01/06 06:41:56;;;;;;;2.93;1.90;;;;;;;1.41;86.31;96750.63;5095504;28;20516;-66
2022/01/06 06:44:23;;;;;;;3.13;1.80;;;;;;;1.35;85.63;96748.34;5096076;28;20630;-65
2022/01/06 06:46:51;;;;;;;3.37;1.93;;;;;;;1.35;86.18;96750.94;5095051;28;20250;-67
2022/01/06 06:49:17;;;;;;;3.70;1.47;;;;;;;1.34;87.09;96749.28;5094202;28;20263;-66
2022/01/06 06:51:44;;;;;;;2.50;1.53;;;;;;;1.35;89.21;96757.00;5095164;28;20207;-66
2022/01/06 06:54:13;;;;;;;2.77;1.60;;;;;;;1.35;88.26;96761.34;5095704;28;20222;-67
2022/01/06 06:56:40;;;;;;;3.50;1.70;;;;;;;1.23;87.26;96764.66;5095859;28;20285;-66
2022/01/06 06:59:06;;;;;;;5.23;2.03;;;;;;;1.21;87.05;96763.88;5095188;28;20203;-64
2022/01/06 07:01:33;;;;;;;2.20;1.67;;;;;;;1.41;86.70;96763.66;5095190;28;20231;-66
2022/01/06 07:03:59;;;;;;;5.87;2.30;;;;;;;1.52;83.86;96761.28;5095970;28;20219;-66
2022/01/06 07:06:25;;;;;;;4.47;2.10;;;;;;;1.45;83.74;96759.94;5096808;28;20204;-67
2022/01/06 07:08:52;;;;;;;3.03;1.80;;;;;;;1.40;84.50;96751.53;5099453;28;20207;-67
2022/01/06 07:11:22;;;;;;;4.70;1.63;;;;;;;1.44;82.87;96758.25;5103578;28;20195;-67
2022/01/06 07:13:49;;;;;;;2.70;1.50;;;;;;;1.63;82.50;96764.13;5120451;28;20186;-66
2022/01/06 07:16:15;;;;;;;7.57;2.03;;;;;;;1.57;81.78;96756.66;5120061;28;20218;-66
2022/01/06 07:18:41;;;;;;;3.50;1.83;;;;;;;1.47;81.92;96768.50;5120128;28;20206;-66
2022/01/06 07:21:08;;;;;;;4.20;1.93;;;;;;;1.43;85.04;96772.22;5120093;28;20212;-66
2022/01/06 07:23:34;;;;;;;3.97;1.27;;;;;;;1.43;83.49;96782.63;5104823;28;20249;-67
2022/01/06 07:26:01;;;;;;;2.70;1.37;;;;;;;1.42;83.95;96783.53;5094981;28;20203;-66
2022/01/06 07:28:28;;;;;;;5.47;1.80;;;;;;;1.50;85.40;96778.75;5095221;28;20630;-65
2022/01/06 07:30:55;;;;;;;5.63;1.90;;;;;;;1.52;83.80;96782.13;5094150;28;20531;-65
2022/01/06 07:33:21;;;;;;;1.00;0.90;;;;;;;1.47;81.28;96778.94;5094498;28;20200;-65
2022/01/06 07:35:48;;;;;;;3.73;1.60;;;;;;;1.48;82.64;96781.47;5094329;28;20196;-67
2022/01/06 07:38:14;;;;;;;1.87;1.23;;;;;;;1.58;83.10;96781.78;5093391;28;20216;-66
2022/01/06 07:40:41;;;;;;;2.77;1.53;;;;;;;1.62;83.00;96787.69;5092742;28;20250;-67
2022/01/06 07:43:07;;;;;;;2.97;1.60;;;;;;;1.69;81.24;96787.25;5094320;28;20247;-66
2022/01/06 07:45:35;;;;;;;6.27;1.70;;;;;;;1.67;81.36;96794.31;5093852;28;20270;-67
2022/01/06 07:48:03;;;;;;;3.90;1.13;;;;;;;1.73;83.42;96796.59;5093794;28;20250;-65
2022/01/06 07:50:34;;;;;;;3.67;1.80;;;;;;;1.74;84.95;96803.47;5093803;28;20206;-67
2022/01/06 07:53:01;;;;;;;2.70;1.63;;;;;;;1.77;86.14;96797.25;5093924;28;20194;-66
2022/01/06 07:55:28;;;;;;;7.37;1.90;;;;;;;1.77;84.56;96812.91;5093181;28;20224;-68
2022/01/06 07:57:55;;;;;;;3.93;2.00;;;;;;;1.83;83.98;96807.34;5092489;28;20624;-65
2022/01/06 08:00:22;;;;;;;6.80;2.10;;;;;;;1.82;84.67;96814.31;5109678;22;20250;-67
2022/01/06 08:02:50;;;;;;;3.87;1.80;;;;;;;1.86;85.54;96810.59;5062166;28;20201;-67
2022/01/06 08:05:19;;;;;;;3.63;1.67;;;;;;;1.83;83.86;96812.53;5069249;28;20208;-66
2022/01/06 08:07:45;;;;;;;3.63;1.43;;;;;;;1.86;80.62;96810.59;5073567;28;20274;-65
2022/01/06 08:10:12;;;;;;;2.70;1.83;;;;;;;1.91;80.29;96815.56;5073487;28;20617;-66
2022/01/06 08:12:39;;;;;;;4.50;2.13;;;;;;;1.92;83.52;96817.22;5072973;28;20205;-65
2022/01/06 08:15:07;;;;;;;4.87;2.20;;;;;;;1.87;82.00;96822.72;5073262;28;20209;-66
2022/01/06 08:17:33;;;;;;;4.80;2.20;;;;;;;1.92;82.32;96823.28;5074349;28;20224;-66
2022/01/06 08:20:01;;;;;;;4.30;1.63;;;;;;;1.92;80.98;96815.47;5074989;28;20273;-66
2022/01/06 08:22:29;;;;;;;3.57;1.70;;;;;;;2.02;80.75;96817.56;5073554;28;20222;-66
2022/01/06 08:24:56;;;;;;;6.13;2.10;;;;;;;1.96;80.52;96819.59;5073825;28;20215;-66
2022/01/06 08:27:23;;;;;;;2.77;1.90;;;;;;;1.99;80.83;96818.56;5078055;28;20251;-67
2022/01/06 08:29:51;;;;;;;2.20;1.80;;;;;;;2.02;80.13;96818.38;5085852;28;20618;-67
2022/01/06 08:32:18;;;;;;;4.73;1.97;;;;;;;1.97;82.80;96826.50;5080028;28;20224;-66
2022/01/06 08:34:45;;;;;;;5.83;2.10;;;;;;;1.99;82.34;96819.41;5085203;28;20208;-66
2022/01/06 08:37:12;;;;;;;3.10;1.60;;;;;;;1.98;80.17;96815.13;5079463;28;20224;-66
2022/01/06 08:39:39;;;;;;;5.10;2.40;;;;;;;2.11;80.29;96822.25;5081499;28;20217;-65
2022/01/06 08:42:06;;;;;;;3.67;1.90;;;;;;;2.14;78.87;96830.75;5080413;28;20289;-66
2022/01/06 08:44:33;;;;;;;2.30;1.53;;;;;;;2.21;78.57;96831.22;5074680;28;20214;-66
2022/01/06 08:47:01;;;;;;;5.07;1.93;;;;;;;2.16;75.64;96826.28;5064823;28;20216;-67
2022/01/06 08:49:28;;;;;;;4.30;1.87;;;;;;;2.17;75.86;96835.78;5067980;28;20201;-66
2022/01/06 08:51:54;;;;;;;6.00;1.90;;;;;;;2.16;76.39;96838.50;5069581;28;20273;-65
2022/01/06 08:54:22;;;;;;;6.63;1.80;;;;;;;2.23;75.37;96834.63;5069889;28;20213;-66
2022/01/06 08:56:49;;;;;;;4.83;2.23;;;;;;;2.28;78.87;96828.19;5068525;28;21300;-64
2022/01/06 08:59:15;;;;;;;1.53;1.43;;;;;;;2.27;74.98;96833.47;5066554;28;20219;-64
2022/01/06 09:01:42;;;;;;;5.43;1.90;;;;;;;2.34;76.42;96837.41;5076712;28;20234;-65
2022/01/06 09:04:08;;;;;;;3.40;1.73;;;;;;;2.38;76.18;96837.16;5081323;28;20216;-67
2022/01/06 09:06:35;;;;;;;3.93;1.43;;;;;;;2.50;77.88;96836.47;5077580;28;20290;-66
2022/01/06 09:09:01;;;;;;;5.03;2.80;;;;;;;2.53;78.49;96845.03;5077128;28;20224;-68
2022/01/06 09:11:29;;;;;;;2.07;1.63;;;;;;;2.57;78.98;96836.94;5073567;28;20207;-67
2022/01/06 09:13:55;;;;;;;3.20;1.50;;;;;;;2.57;78.26;96842.16;5070926;28;20550;-67
2022/01/06 09:16:23;;;;;;;4.50;1.90;;;;;;;2.58;75.61;96837.78;5065816;28;20882;-65
2022/01/06 09:18:50;;;;;;;3.00;2.13;;;;;;;2.70;76.20;96834.44;5068972;28;20216;-66
2022/01/06 09:21:22;;;;;;;3.53;1.93;;;;;;;2.83;76.57;96841.47;5072099;28;20222;-65
2022/01/06 09:23:48;;;;;;;3.60;1.80;;;;;;;2.95;75.20;96834.66;5064505;28;20210;-65
2022/01/06 09:26:15;;;;;;;4.73;2.20;;;;;;;2.93;76.29;96840.00;5065019;28;20226;-65
2022/01/06 09:28:43;;;;;;;4.27;2.43;;;;;;;2.92;77.52;96848.75;5063330;28;20209;-67
2022/01/06 09:31:09;;;;;;;3.77;2.00;;;;;;;2.97;74.94;96849.34;5071877;28;20202;-65
2022/01/06 09:33:36;;;;;;;2.90;2.30;;;;;;;2.83;74.50;96846.72;5074354;28;20221;-65
2022/01/06 09:36:03;;;;;;;3.90;2.63;;;;;;;2.90;76.33;96847.19;5076303;28;20213;-66
2022/01/06 09:38:29;;;;;;;3.63;2.10;;;;;;;2.92;76.01;96843.53;5083729;28;20205;-66
2022/01/06 09:40:56;;;;;;;2.80;1.97;;;;;;;2.97;76.38;96841.50;5080677;28;20221;-66
2022/01/06 09:43:24;;;;;;;3.00;1.97;;;;;;;2.97;75.21;96846.72;5082237;28;20201;-67
2022/01/06 09:45:53;;;;;;;4.20;2.20;;;;;;;3.04;74.34;96846.34;5083594;28;20205;-65
2022/01/06 09:48:20;;;;;;;3.37;2.00;;;;;;;3.18;76.14;96848.97;5082361;28;20190;-67
2022/01/06 09:50:47;;;;;;;3.60;2.20;;;;;;;3.23;73.86;96852.13;5081824;28;20198;-66
2022/01/06 09:53:13;;;;;;;3.03;1.70;;;;;;;3.28;72.99;96850.09;5083444;28;20202;-65
2022/01/06 09:55:40;;;;;;;2.87;2.00;;;;;;;3.32;74.25;96854.19;5080794;28;20202;-66
2022/01/06 09:58:07;;;;;;;2.63;1.80;;;;;;;3.35;75.33;96843.56;5078489;28;20225;-66
2022/01/06 10:00:35;;;;;;;4.67;1.90;;;;;;;3.37;76.10;96846.91;5076201;28;20246;-66
2022/01/06 10:03:05;;;;;;;2.17;1.87;;;;;;;3.48;74.29;96858.38;5069034;28;20206;-65
2022/01/06 10:05:39;;;;;;;1.93;1.60;;;;;;;3.54;73.34;96853.72;5062932;28;20225;-67
2022/01/06 10:08:06;;;;;;;5.47;2.33;;;;;;;3.56;72.87;96859.69;5061657;28;20207;-66
2022/01/06 10:10:34;;;;;;;4.87;2.10;;;;;;;3.48;72.45;96858.38;5062120;28;20234;-65
2022/01/06 10:13:06;;;;;;;2.70;2.30;;;;;;;3.51;70.79;96862.56;5065409;28;20245;-67
2022/01/06 10:15:34;;;;;;;2.93;2.40;;;;;;;3.46;73.95;96864.66;5074539;28;20201;-67
2022/01/06 10:18:12;;;;;;;2.70;1.70;;;;;;;3.52;72.65;96864.25;5077045;28;20202;-66
2022/01/06 10:20:38;;;;;;;2.50;2.30;;;;;;;3.47;72.15;96868.94;5077703;28;20191;-65
2022/01/06 10:23:11;;;;;;;5.57;2.03;;;;;;;3.55;73.23;96866.69;5066256;28;20211;-65
2022/01/06 10:25:39;;;;;;;4.87;2.67;;;;;;;3.48;74.06;96875.84;5068318;28;20209;-66
2022/01/06 10:28:14;;;;;;;3.50;2.20;;;;;;;3.37;74.42;96878.25;5077894;28;20217;-66
2022/01/06 10:30:47;;;;;;;5.30;2.33;;;;;;;3.40;75.22;96870.25;5066042;28;20213;-66
2022/01/06 10:33:16;;;;;;;4.20;2.20;;;;;;;3.34;73.87;96878.44;5067338;28;20207;-65
2022/01/06 10:35:42;;;;;;;3.37;2.30;;;;;;;3.12;75.95;96878.91;5065431;28;20202;-65
2022/01/06 10:38:09;;;;;;;5.07;2.37;;;;;;;2.90;78.75;96875.91;5065568;28;20225;-65
2022/01/06 10:40:35;;;;;;;4.50;2.13;;;;;;;2.83;80.23;96872.81;5065126;28;20554;-65
2022/01/06 10:43:05;;;;;;;2.80;1.80;;;;;;;2.84;80.18;96879.72;5065274;28;20231;-65
2022/01/06 10:45:32;;;;;;;4.63;2.00;;;;;;;2.89;80.94;96875.06;5065144;28;20213;-65
2022/01/06 10:48:00;;;;;;;4.53;2.07;;;;;;;2.76;82.14;96875.88;5076996;28;20522;-65
2022/01/06 10:50:30;;;;;;;2.73;2.00;;;;;;;2.70;83.69;96884.91;5067030;28;20272;-65
2022/01/06 10:52:58;;;;;;;5.90;2.33;;;;;;;2.60;84.56;96885.53;5065000;28;20205;-64
2022/01/06 10:55:27;;;;;;;4.77;2.10;;;;;;;2.49;84.39;96881.75;5065826;28;20268;-65
2022/01/06 10:57:56;;;;;;;2.40;2.13;;;;;;;2.43;85.17;96878.66;5073466;28;20206;-65
2022/01/06 11:00:25;;;;;;;2.37;2.10;;;;;;;2.41;86.40;96872.69;5079126;28;20311;-67
2022/01/06 11:02:51;;;;;;;4.10;2.10;;;;;;;2.35;86.44;96883.47;5076709;28;20684;-64
2022/01/06 11:05:18;;;;;;;3.90;2.10;;;;;;;2.31;86.61;96880.19;5079625;28;20206;-65
2022/01/06 11:07:46;;;;;;;4.80;2.43;;;;;;;2.21;87.15;96876.44;5074928;28;20217;-65
2022/01/06 11:10:16;;;;;;;3.90;2.13;;;;;;;2.23;88.18;96881.56;5068469;28;20224;-65
2022/01/06 11:12:43;;;;;;;3.10;2.43;;;;;;;2.22;88.04;96882.50;5066057;28;20291;-66
2022/01/06 11:15:10;;;;;;;2.63;2.30;;;;;;;2.31;88.44;96876.75;5064809;28;20959;-65
2022/01/06 11:17:36;;;;;;;3.87;2.80;;;;;;;2.33;88.54;96869.69;5064013;28;20232;-66
2022/01/06 11:20:03;;;;;;;4.00;2.67;;;;;;;2.29;88.88;96878.63;5064071;28;20251;-65
2022/01/06 11:22:30;;;;;;;5.80;3.10;;;;;;;2.41;89.46;96872.69;5063793;28;20226;-65
2022/01/06 11:25:02;;;;;;;3.90;2.50;;;;;;;2.41;88.20;96873.53;5063708;28;20232;-65
2022/01/06 11:27:33;;;;;;;6.20;2.57;;;;;;;2.51;87.33;96868.63;5064413;28;20218;-65
2022/01/06 11:30:11;;;;;;;6.47;2.70;;;;;;;2.55;86.89;96875.34;5064125;28;20225;-66
2022/01/06 11:32:37;;;;;;;5.23;2.40;;;;;;;2.59;87.94;96874.22;5064081;28;20209;-64
2022/01/06 11:35:07;;;;;;;4.90;2.90;;;;;;;2.61;86.60;96868.94;5062845;28;20202;-65
2022/01/06 11:37:41;;;;;;;2.93;2.40;;;;;;;2.49;85.57;96879.16;5064348;28;20217;-66
2022/01/06 11:40:11;;;;;;;5.83;2.80;;;;;;;2.54;86.17;96876.28;5064252;28;20596;-65
2022/01/06 11:42:37;;;;;;;3.47;2.50;;;;;;;2.57;86.27;96870.88;5064970;28;20221;-65
2022/01/06 11:45:06;;;;;;;3.00;2.53;;;;;;;2.69;86.09;96867.56;5064962;28;20296;-64